This is the latest recevied weather packets stored in our database for station/object NO3B-10. If no packets are shown the sender has not sent any weather packets the latest 10 day(s).
| Time | Temp. | Humidity | Pressure | Rain* | Wind** | Luminosity | Snow |
|---|---|---|---|---|---|---|---|
| 1787979246 | 21.67° C | 97% | 1016.6 hPa | 0 mm | - | - | - |
| 1787978347 | 21.67° C | 97% | 1016.5 hPa | 0 mm | - | - | - |
| 1787977446 | 21.67° C | 97% | 1016.3 hPa | 0 mm | - | - | - |
| 1787975646 | 22.22° C | 96% | 1016.3 hPa | 0 mm | - | - | - |
| 1787973846 | 22.22° C | 95% | 1016.2 hPa | 0 mm | - | - | - |
| 1787962148 | 24.44° C | 82% | 1014.6 hPa | 0 mm | - | - | - |
| 1787959448 | 25.56° C | 80% | 1013.6 hPa | 0 mm | - | - | - |
| 1787956749 | 27.22° C | 81% | 1013.5 hPa | 0 mm | - | - | - |
| 1787955849 | 28.33° C | 78% | 1013.3 hPa | 0 mm | - | - | - |
| 1787954949 | 28.33° C | 79% | 1013.2 hPa | 0 mm | - | - | - |
| 1787953149 | 29.44° C | 73% | 1013.3 hPa | 0 mm | - | - | - |
| 1787949549 | 28.89° C | 75% | 1013 hPa | 0 mm | - | - | - |
| 1787916252 | 21.67° C | 99% | 1012 hPa | 0 mm | - | - | - |
| 1787915351 | 21.67° C | 99% | 1011.8 hPa | 0 mm | - | - | - |
| 1787914449 | 21.67° C | 99% | 1011.6 hPa | 0 mm | - | - | - |
| 1787909949 | 22.22° C | 98% | 1011.2 hPa | 0 mm | - | - | - |
| 1787909049 | 22.22° C | 98% | 1011.4 hPa | 0 mm | - | - | - |
| 1787908150 | 22.78° C | 98% | 1011.2 hPa | 0 mm | - | - | - |
| 1787907251 | 22.78° C | 98% | 1011.3 hPa | 0 mm | - | - | - |
| 1787905691 | 22.78° C | 97% | 1011.3 hPa | 0 mm | - | - | - |
| 1787905450 | 22.78° C | 97% | 1011.3 hPa | 0 mm | - | - | - |
| 1787903865 | 23.33° C | 97% | 1011.1 hPa | 0 mm | - | - | - |
| 1787903650 | 23.33° C | 97% | 1011.1 hPa | 0 mm | - | - | - |
| 1787900952 | 23.33° C | 98% | 1011.4 hPa | 0 mm | - | - | - |
| 1787900238 | 23.33° C | 97% | 1011.1 hPa | 0 mm | - | - | - |
* Rain latest hour (hover to see other rain measurements)
** Current wind speed in m/s (hover to see current wind gust speed)